Time;durP1;ratioP1;P1;durP2;ratioP2;P2;SDS_P1;SDS_P2;PMS_P1;PMS_P2;Temp;Humidity;BMP_temperature;BMP_pressure;BME280_temperature;BME280_humidity;BME280_pressure;Samples;Min_cycle;Max_cycle;Signal;HPM_P1;HPM_P2
2023/09/01 00:02:06;;;;;;;20.48;14.13;;;;;;;18.66;100.00;100616.69;5051798;28;20380;-68
2023/09/01 00:04:32;;;;;;;19.50;15.05;;;;;;;18.55;100.00;100599.31;5052056;28;20024;-65
2023/09/01 00:06:59;;;;;;;21.17;15.73;;;;;;;18.51;100.00;100592.72;5054838;28;20036;-65
2023/09/01 00:09:24;;;;;;;23.30;16.02;;;;;;;18.58;100.00;100604.28;5053879;28;20134;-67
2023/09/01 00:11:50;;;;;;;26.60;16.70;;;;;;;18.52;100.00;100602.44;5053060;28;20064;-67
2023/09/01 00:14:15;;;;;;;25.73;17.48;;;;;;;18.47;100.00;100597.69;5055880;28;20028;-69
2023/09/01 00:16:41;;;;;;;20.85;17.60;;;;;;;18.53;100.00;100601.41;5055950;28;20051;-66
2023/09/01 00:19:06;;;;;;;23.70;17.20;;;;;;;18.45;100.00;100594.38;5055807;28;20075;-68
2023/09/01 00:21:32;;;;;;;24.13;14.52;;;;;;;18.31;100.00;100565.06;5055955;28;20025;-67
2023/09/01 00:23:57;;;;;;;25.08;16.60;;;;;;;18.54;100.00;100592.28;5056270;28;20520;-68
2023/09/01 00:26:23;;;;;;;21.42;16.30;;;;;;;18.52;100.00;100602.44;5058592;28;20111;-68
2023/09/01 00:28:48;;;;;;;18.40;15.07;;;;;;;18.45;100.00;100593.56;5057064;28;20028;-67
2023/09/01 00:31:16;;;;;;;20.17;15.25;;;;;;;18.43;100.00;100609.13;5055695;28;20120;-67
2023/09/01 00:33:42;;;;;;;22.55;16.42;;;;;;;18.33;100.00;100600.72;5055333;28;20055;-67
2023/09/01 00:36:07;;;;;;;18.50;13.98;;;;;;;18.27;100.00;100602.41;5055533;28;20457;-67
2023/09/01 00:38:33;;;;;;;25.13;15.10;;;;;;;18.15;100.00;100593.34;5057117;28;20108;-68
2023/09/01 00:40:58;;;;;;;22.40;15.20;;;;;;;17.99;100.00;100570.44;5055680;28;20407;-66
2023/09/01 00:43:25;;;;;;;19.65;14.20;;;;;;;18.15;100.00;100596.84;5055275;28;20033;-66
2023/09/01 00:45:50;;;;;;;18.05;15.15;;;;;;;17.95;100.00;100574.59;5055360;28;20021;-67
2023/09/01 00:48:16;;;;;;;21.48;14.90;;;;;;;18.06;100.00;100592.78;5055127;28;20035;-66
2023/09/01 00:50:43;;;;;;;19.33;14.00;;;;;;;18.00;100.00;100580.16;5055341;28;20108;-68
2023/09/01 00:53:08;;;;;;;18.55;15.27;;;;;;;17.98;100.00;100584.13;5055246;28;20029;-67
2023/09/01 00:55:35;;;;;;;18.33;14.85;;;;;;;17.88;100.00;100577.31;5055162;28;20033;-67
2023/09/01 00:58:02;;;;;;;20.98;15.05;;;;;;;18.00;100.00;100595.50;5055042;28;20033;-68
2023/09/01 01:00:28;;;;;;;19.98;14.13;;;;;;;17.94;100.00;100591.81;5055161;28;20025;-67
2023/09/01 01:02:55;;;;;;;20.33;15.52;;;;;;;17.85;100.00;100580.44;5055026;28;20092;-67
2023/09/01 01:05:31;;;;;;;20.38;15.55;;;;;;;17.89;100.00;100600.50;5054960;28;20067;-67
2023/09/01 01:08:10;;;;;;;24.80;15.90;;;;;;;17.86;100.00;100594.72;5055007;28;20033;-67
2023/09/01 01:10:46;;;;;;;21.23;15.27;;;;;;;17.81;100.00;100587.28;5053569;28;20465;-66
2023/09/01 01:13:18;;;;;;;23.50;15.60;;;;;;;17.72;100.00;100583.19;5054753;28;20037;-68
2023/09/01 01:15:44;;;;;;;21.65;15.00;;;;;;;17.64;100.00;100578.03;5054917;28;20025;-66
2023/09/01 01:18:12;;;;;;;20.60;15.07;;;;;;;17.70;100.00;100590.66;5053453;28;20034;-66
2023/09/01 01:20:39;;;;;;;21.35;15.90;;;;;;;17.77;100.00;100610.31;5054768;28;20039;-68
2023/09/01 01:23:16;;;;;;;17.65;13.77;;;;;;;17.65;100.00;100593.97;5054453;28;20468;-66
2023/09/01 01:26:00;;;;;;;15.80;13.82;;;;;;;17.78;100.00;100608.44;5054470;28;20040;-66
2023/09/01 01:28:25;;;;;;;18.75;13.27;;;;;;;17.65;100.00;100593.97;5054815;28;20045;-67
2023/09/01 01:30:51;;;;;;;19.38;16.13;;;;;;;17.70;100.00;100590.66;5053397;28;20059;-68
2023/09/01 01:33:38;;;;;;;17.63;13.57;;;;;;;18.00;100.00;100617.91;5054320;28;20044;-69
2023/09/01 01:36:16;;;;;;;18.25;13.10;;;;;;;18.04;100.00;100611.03;5054258;28;20033;-66
2023/09/01 01:38:46;;;;;;;16.90;13.10;;;;;;;17.51;100.00;100526.91;5054570;28;20029;-66
2023/09/01 01:41:18;;;;;;;17.27;12.70;;;;;;;18.10;100.00;100612.03;5054238;28;20032;-66
2023/09/01 01:43:45;;;;;;;12.48;10.23;;;;;;;18.19;100.00;100616.13;5054380;28;20040;-67
2023/09/01 01:46:12;;;;;;;13.27;8.88;;;;;;;18.08;100.00;100630.28;5054323;28;20043;-70
2023/09/01 01:48:38;;;;;;;11.10;8.30;;;;;;;18.07;100.00;100617.84;5053949;28;20383;-65
2023/09/01 01:51:05;;;;;;;9.48;8.38;;;;;;;18.05;100.00;100620.75;5054212;28;20033;-65
2023/09/01 01:53:34;;;;;;;12.52;7.68;;;;;;;17.47;100.00;100525.69;5054082;28;20028;-66
2023/09/01 01:55:59;;;;;;;10.68;8.38;;;;;;;18.09;100.00;100624.69;5054000;28;20119;-69
2023/09/01 01:58:26;;;;;;;12.82;9.07;;;;;;;18.11;100.00;100627.16;5054067;28;20540;-66
2023/09/01 02:00:52;;;;;;;6.68;5.97;;;;;;;18.14;100.00;100630.25;5053980;28;20057;-67
2023/09/01 02:03:18;;;;;;;13.95;7.53;;;;;;;18.04;100.00;100611.03;5053731;28;20063;-67
2023/09/01 02:05:43;;;;;;;8.23;7.43;;;;;;;18.15;100.00;100625.69;5054259;28;20480;-69
2023/09/01 02:08:09;;;;;;;8.75;6.28;;;;;;;18.10;100.00;100618.25;5052643;28;20025;-68
2023/09/01 02:10:34;;;;;;;7.10;6.40;;;;;;;18.14;100.00;100626.72;5057247;28;20028;-66
2023/09/01 02:13:01;;;;;;;8.30;6.55;;;;;;;17.92;100.00;100583.09;5057294;28;20483;-66
2023/09/01 02:15:26;;;;;;;9.35;6.93;;;;;;;18.15;100.00;100631.06;5053759;28;20431;-66
2023/09/01 02:17:52;;;;;;;7.95;7.15;;;;;;;18.22;100.00;100631.88;5053514;28;20028;-66
2023/09/01 02:20:18;;;;;;;8.80;6.20;;;;;;;18.18;100.00;100625.25;5053812;28;20025;-66
2023/09/01 02:22:48;;;;;;;7.38;5.85;;;;;;;18.23;100.00;100637.06;5053670;28;20029;-67
2023/09/01 02:25:13;;;;;;;8.52;6.95;;;;;;;18.27;100.00;100640.16;5054024;28;20067;-66
2023/09/01 02:27:40;;;;;;;9.07;7.40;;;;;;;18.19;100.00;100630.41;5053511;28;20111;-66
2023/09/01 02:30:08;;;;;;;7.55;6.75;;;;;;;18.29;100.00;100646.16;5053510;28;20091;-69
2023/09/01 02:32:34;;;;;;;8.15;6.57;;;;;;;18.33;100.00;100654.63;5054767;28;20388;-66
2023/09/01 02:35:00;;;;;;;6.32;5.65;;;;;;;18.22;100.00;100629.19;5053856;28;20029;-66
2023/09/01 02:37:26;;;;;;;6.63;5.93;;;;;;;18.28;100.00;100644.50;5059006;28;20094;-66
2023/09/01 02:39:52;;;;;;;7.28;5.47;;;;;;;18.21;100.00;100640.97;5055692;28;20044;-67
2023/09/01 02:42:17;;;;;;;7.40;4.82;;;;;;;18.00;100.00;100612.50;5054238;28;20029;-67
2023/09/01 02:44:42;;;;;;;7.07;5.63;;;;;;;18.26;100.00;100652.81;5053832;28;20020;-66
2023/09/01 02:47:08;;;;;;;6.93;5.15;;;;;;;18.30;100.00;100652.38;5054462;28;20020;-69
2023/09/01 02:49:34;;;;;;;6.78;5.00;;;;;;;18.22;100.00;100648.06;5056499;28;20154;-68
2023/09/01 02:51:59;;;;;;;6.18;5.22;;;;;;;18.26;100.00;100644.72;5053518;28;20025;-66
2023/09/01 02:54:25;;;;;;;8.50;5.28;;;;;;;18.13;100.00;100630.47;5061270;28;20040;-70
2023/09/01 02:56:50;;;;;;;6.75;4.97;;;;;;;18.21;100.00;100643.69;5063494;28;20021;-66
2023/09/01 02:59:16;;;;;;;7.63;4.53;;;;;;;18.29;100.00;100648.00;5064254;28;20029;-67
2023/09/01 03:01:41;;;;;;;7.55;5.72;;;;;;;18.31;100.00;100657.53;5062408;28;20021;-66
2023/09/01 03:04:07;;;;;;;7.28;5.88;;;;;;;18.29;100.00;100656.09;5054919;28;20503;-68
2023/09/01 03:06:35;;;;;;;7.30;5.68;;;;;;;18.20;100.00;100653.63;5055435;28;20397;-69
2023/09/01 03:09:02;;;;;;;5.70;4.60;;;;;;;18.27;100.00;100667.94;5051976;28;20036;-66
2023/09/01 03:11:28;;;;;;;7.53;5.47;;;;;;;18.28;100.00;100663.38;5055247;28;20123;-66
2023/09/01 03:13:54;;;;;;;6.10;5.22;;;;;;;18.26;100.00;100666.28;5059824;28;20089;-67
2023/09/01 03:16:19;;;;;;;5.10;4.60;;;;;;;18.22;100.00;100664.22;5058491;28;20036;-67
2023/09/01 03:18:45;;;;;;;7.22;5.30;;;;;;;18.30;100.00;100677.47;5057860;28;20032;-67
2023/09/01 03:21:12;;;;;;;5.60;5.07;;;;;;;18.25;100.00;100670.03;5053608;28;20021;-68
2023/09/01 03:23:38;;;;;;;6.97;6.13;;;;;;;18.27;100.00;100667.09;5052829;28;20108;-68
2023/09/01 03:26:05;;;;;;;5.38;4.75;;;;;;;18.35;100.00;100682.19;5052673;28;20079;-66
2023/09/01 03:28:31;;;;;;;6.72;5.22;;;;;;;18.39;100.00;100686.94;5055604;28;20135;-66
2023/09/01 03:30:57;;;;;;;6.40;4.68;;;;;;;18.40;100.00;100682.38;5053012;28;20091;-68
2023/09/01 03:33:23;;;;;;;7.38;5.25;;;;;;;18.41;100.00;100689.41;5051381;28;20041;-66
2023/09/01 03:35:48;;;;;;;5.82;4.95;;;;;;;18.27;100.00;100669.81;5052693;28;20037;-66
2023/09/01 03:38:14;;;;;;;5.95;5.13;;;;;;;18.27;100.00;100684.09;5052468;28;20032;-66
2023/09/01 03:40:39;;;;;;;5.38;4.88;;;;;;;18.24;100.00;100679.16;5051144;28;20518;-67
2023/09/01 03:43:06;;;;;;;4.72;4.22;;;;;;;18.23;100.00;100682.88;5052465;28;20025;-68
2023/09/01 03:45:32;;;;;;;7.87;5.17;;;;;;;18.27;100.00;100683.28;5052222;28;20468;-69
2023/09/01 03:47:57;;;;;;;6.10;5.05;;;;;;;18.32;100.00;100690.72;5051033;28;20266;-66
2023/09/01 03:50:23;;;;;;;5.03;4.47;;;;;;;18.34;100.00;100697.53;5052267;28;20029;-67
2023/09/01 03:52:48;;;;;;;4.13;3.72;;;;;;;18.30;100.00;100693.63;5052090;28;20032;-66
2023/09/01 03:55:14;;;;;;;4.65;4.25;;;;;;;18.45;100.00;100712.22;5052078;28;20040;-68
2023/09/01 03:57:39;;;;;;;4.00;3.65;;;;;;;18.42;100.00;100701.84;5051831;28;20108;-68
2023/09/01 04:00:10;;;;;;;6.72;4.68;;;;;;;18.50;100.00;100713.25;5051993;28;20055;-67
2023/09/01 04:02:36;;;;;;;4.13;3.72;;;;;;;18.38;100.00;100693.38;5052157;28;20472;-67
2023/09/01 04:05:02;;;;;;;4.85;4.03;;;;;;;18.24;100.00;100679.16;5051889;28;20028;-65
2023/09/01 04:07:28;;;;;;;5.10;4.00;;;;;;;18.51;100.00;100717.59;5050670;28;20029;-67
2023/09/01 04:09:54;;;;;;;5.53;3.90;;;;;;;18.54;100.00;100721.72;5051596;28;20032;-68
2023/09/01 04:12:19;;;;;;;4.97;4.03;;;;;;;18.54;100.00;100725.25;5051507;28;20071;-67
2023/09/01 04:14:45;;;;;;;4.65;4.25;;;;;;;18.53;100.00;100722.75;5051776;28;20524;-66
2023/09/01 04:17:10;;;;;;;5.65;4.38;;;;;;;18.51;100.00;100724.84;5050613;28;20033;-67
2023/09/01 04:19:36;;;;;;;5.22;3.45;;;;;;;18.26;100.00;100682.44;5051894;28;20426;-66
2023/09/01 04:22:01;;;;;;;6.15;4.18;;;;;;;18.43;100.00;100708.91;5052288;28;20167;-67
2023/09/01 04:24:27;;;;;;;4.70;4.20;;;;;;;18.51;100.00;100705.97;5050287;28;20060;-69
2023/09/01 04:26:52;;;;;;;4.32;3.92;;;;;;;18.65;100.00;100731.03;5051077;28;20378;-68
2023/09/01 04:29:18;;;;;;;4.60;3.97;;;;;;;18.67;100.00;100737.84;5052107;28;20132;-65
2023/09/01 04:31:43;;;;;;;5.40;4.10;;;;;;;18.70;100.00;100748.22;5051950;28;20049;-65
2023/09/01 04:34:10;;;;;;;5.40;4.25;;;;;;;18.60;100.00;100726.25;5051646;28;20078;-67
2023/09/01 04:36:36;;;;;;;5.93;3.67;;;;;;;18.71;100.00;100755.25;5050675;28;20079;-70
2023/09/01 04:39:04;;;;;;;4.80;4.30;;;;;;;18.76;100.00;100755.44;5050877;28;20021;-72
2023/09/01 04:41:32;;;;;;;8.63;4.15;;;;;;;18.72;100.00;100756.91;5052050;28;20050;-67
2023/09/01 04:43:58;;;;;;;5.60;4.57;;;;;;;18.80;100.00;100763.94;5052158;28;20371;-67
2023/09/01 04:46:24;;;;;;;5.82;4.00;;;;;;;18.76;100.00;100751.91;5050566;28;20425;-69
2023/09/01 04:48:50;;;;;;;3.67;3.20;;;;;;;18.84;100.00;100768.69;5051311;28;20032;-66
2023/09/01 04:51:15;;;;;;;6.72;4.07;;;;;;;18.90;100.00;100763.47;5051206;28;20475;-66
2023/09/01 04:53:41;;;;;;;5.93;4.10;;;;;;;18.88;100.00;100767.22;5050750;28;20119;-67
2023/09/01 04:56:06;;;;;;;5.07;3.45;;;;;;;18.89;100.00;100762.63;5049853;28;20025;-69
2023/09/01 04:58:32;;;;;;;5.10;3.63;;;;;;;18.71;100.00;100735.53;5052810;28;20497;-67
2023/09/01 05:00:57;;;;;;;6.70;3.50;;;;;;;18.92;100.00;100772.16;5054344;28;20025;-68
2023/09/01 05:03:23;;;;;;;7.88;4.28;;;;;;;19.00;100.00;100777.28;5054459;28;20029;-68
2023/09/01 05:05:49;;;;;;;5.53;3.33;;;;;;;19.00;100.00;100770.03;5053445;28;20107;-65
2023/09/01 05:08:16;;;;;;;6.90;3.40;;;;;;;19.07;100.00;100787.00;5053079;28;20039;-65
2023/09/01 05:10:41;;;;;;;4.10;3.20;;;;;;;19.07;100.00;100784.31;5052847;28;20464;-68
2023/09/01 05:13:07;;;;;;;4.85;4.40;;;;;;;19.13;100.00;100786.16;5053046;28;20041;-68
2023/09/01 05:15:32;;;;;;;5.68;3.92;;;;;;;19.10;100.00;100781.19;5054937;28;20029;-71
2023/09/01 05:17:58;;;;;;;6.47;4.25;;;;;;;19.19;100.00;100795.25;5054859;28;20037;-67
2023/09/01 05:20:23;;;;;;;6.07;3.75;;;;;;;19.19;100.00;100793.38;5054327;28;20059;-68
2023/09/01 05:22:49;;;;;;;4.43;3.92;;;;;;;19.14;100.00;100795.06;5052030;28;20068;-70
2023/09/01 05:25:14;;;;;;;8.25;4.10;;;;;;;19.17;100.00;100794.63;5053796;28;20037;-68
2023/09/01 05:27:40;;;;;;;7.57;4.65;;;;;;;19.22;100.00;100792.09;5052630;28;20044;-67
2023/09/01 05:30:07;;;;;;;7.40;3.88;;;;;;;19.27;100.00;100780.66;5054055;28;20507;-68
2023/09/01 05:32:34;;;;;;;9.25;4.95;;;;;;;19.39;100.00;100795.13;5053484;28;20384;-69
2023/09/01 05:34:59;;;;;;;5.78;4.05;;;;;;;19.38;100.00;100783.47;5051301;28;20032;-68
2023/09/01 05:37:25;;;;;;;9.10;4.40;;;;;;;19.48;100.00;100800.00;5053532;28;20061;-67
2023/09/01 05:39:50;;;;;;;6.20;3.83;;;;;;;19.43;100.00;100796.31;5053372;28;20029;-68
2023/09/01 05:42:16;;;;;;;5.32;4.38;;;;;;;19.49;100.00;100807.06;5054446;28;20333;-67
2023/09/01 05:44:41;;;;;;;4.32;3.65;;;;;;;19.53;100.00;100812.03;5055678;28;20100;-67
2023/09/01 05:47:09;;;;;;;6.70;4.05;;;;;;;19.57;100.00;100813.25;5055173;28;20133;-69
2023/09/01 05:49:35;;;;;;;4.43;3.90;;;;;;;19.51;100.00;100806.84;5053627;28;20468;-68
2023/09/01 05:52:03;;;;;;;5.97;3.75;;;;;;;19.64;100.00;100808.63;5053738;28;20029;-69
2023/09/01 05:54:28;;;;;;;6.40;4.13;;;;;;;19.73;100.00;100818.13;5053293;28;20063;-68
2023/09/01 05:56:54;;;;;;;8.45;5.28;;;;;;;19.74;100.00;100830.59;5053800;28;20021;-68
2023/09/01 05:59:20;;;;;;;8.60;3.80;;;;;;;19.72;100.00;100824.59;5054074;28;20025;-66
2023/09/01 06:01:46;;;;;;;5.28;4.45;;;;;;;19.36;100.00;100782.84;5054093;28;20475;-67
2023/09/01 06:04:17;;;;;;;9.93;3.88;;;;;;;19.57;100.00;100807.88;5053435;28;20029;-70
2023/09/01 06:06:42;;;;;;;5.20;3.80;;;;;;;19.80;100.00;100840.50;5053545;28;20380;-67
2023/09/01 06:09:08;;;;;;;4.03;3.13;;;;;;;19.66;100.00;100807.38;5051199;28;20127;-66
2023/09/01 06:11:37;;;;;;;6.20;3.53;;;;;;;19.72;100.00;100838.09;5053525;28;20025;-66
2023/09/01 06:14:03;;;;;;;5.60;4.50;;;;;;;19.63;100.00;100832.13;5053652;28;20029;-68
2023/09/01 06:16:29;;;;;;;5.22;3.67;;;;;;;19.64;100.00;100841.03;5053838;28;20051;-75
2023/09/01 06:18:55;;;;;;;7.10;4.10;;;;;;;19.56;100.00;100834.06;5052179;28;20128;-77
2023/09/01 06:21:20;;;;;;;4.85;3.78;;;;;;;19.54;100.00;100835.31;5053559;28;20025;-69
2023/09/01 06:23:47;;;;;;;5.13;3.47;;;;;;;19.55;100.00;100837.81;5054261;28;20025;-76
2023/09/01 06:26:14;;;;;;;7.13;3.92;;;;;;;19.41;100.00;100812.75;5053716;28;20047;-67
2023/09/01 06:28:40;;;;;;;5.63;3.80;;;;;;;19.53;100.00;100833.63;5053609;28;20084;-68
2023/09/01 06:31:09;;;;;;;7.75;4.10;;;;;;;19.45;100.00;100837.44;5053313;28;20477;-68
2023/09/01 06:33:34;;;;;;;;;;;;;;;19.56;100.00;100854.84;5053744;28;20047;-69
2023/09/01 06:35:59;;;;;;;8.45;4.63;;;;;;;19.45;100.00;100861.75;5051798;28;19913;-68
2023/09/01 06:38:25;;;;;;;6.43;3.85;;;;;;;19.11;100.00;100825.22;5052853;28;20012;-68
2023/09/01 06:40:50;;;;;;;8.07;4.00;;;;;;;19.24;100.00;100844.00;5053107;28;20043;-69
2023/09/01 06:43:16;;;;;;;6.07;3.67;;;;;;;19.40;100.00;100875.09;5053344;28;20020;-70
2023/09/01 06:45:41;;;;;;;9.02;5.45;;;;;;;19.47;100.00;100868.59;5051728;28;20083;-67
2023/09/01 06:48:07;;;;;;;7.22;4.40;;;;;;;19.40;100.00;100848.91;5052612;28;20086;-68
2023/09/01 06:50:32;;;;;;;5.95;4.15;;;;;;;19.55;100.00;100877.50;5052853;28;20031;-68
2023/09/01 06:52:58;;;;;;;6.72;4.20;;;;;;;19.64;100.00;100870.78;5052624;28;20033;-69
2023/09/01 06:55:24;;;;;;;5.45;3.28;;;;;;;19.68;100.00;100855.78;5052973;28;20049;-69
2023/09/01 06:57:49;;;;;;;7.18;3.88;;;;;;;19.57;100.00;100832.19;5051624;28;20497;-68
2023/09/01 07:00:16;;;;;;;8.10;4.00;;;;;;;19.61;100.00;100852.31;5052894;28;20035;-68
2023/09/01 07:02:41;;;;;;;13.20;4.72;;;;;;;19.80;100.00;100870.25;5051823;28;20460;-68
2023/09/01 07:05:07;;;;;;;6.55;4.10;;;;;;;19.86;100.00;100866.66;5051197;28;20124;-67
2023/09/01 07:07:32;;;;;;;6.03;3.92;;;;;;;20.19;100.00;100881.75;5051473;28;20032;-67
2023/09/01 07:09:57;;;;;;;3.65;3.03;;;;;;;20.32;100.00;100882.44;5052470;28;20116;-68
2023/09/01 07:12:23;;;;;;;6.95;3.72;;;;;;;20.55;100.00;100881.81;5052695;28;20056;-69
2023/09/01 07:14:48;;;;;;;7.90;3.45;;;;;;;20.59;100.00;100887.59;5034713;28;20044;-66
2023/09/01 07:17:20;;;;;;;5.75;3.45;;;;;;;20.62;100.00;100874.44;5052540;28;20028;-66
2023/09/01 07:19:45;;;;;;;3.72;2.72;;;;;;;20.63;100.00;100859.88;5051215;28;20033;-66
2023/09/01 07:22:11;;;;;;;14.55;3.78;;;;;;;20.81;100.00;100885.25;5052103;28;20021;-67
2023/09/01 07:24:36;;;;;;;4.78;3.00;;;;;;;20.82;100.00;100886.94;5052309;28;20029;-67
2023/09/01 07:27:03;;;;;;;3.78;2.97;;;;;;;20.81;100.00;100869.84;5051478;28;20048;-67
2023/09/01 07:29:29;;;;;;;4.40;3.42;;;;;;;21.17;100.00;100882.50;5052100;28;20045;-67
2023/09/01 07:31:55;;;;;;;3.45;2.78;;;;;;;21.43;100.00;100878.63;5052138;28;20032;-68
2023/09/01 07:34:20;;;;;;;3.88;2.80;;;;;;;21.54;100.00;100874.28;5052098;28;20035;-70
2023/09/01 07:36:45;;;;;;;4.38;2.90;;;;;;;21.54;99.64;100877.81;5051989;28;21172;-65
2023/09/01 07:39:11;;;;;;;11.98;3.88;;;;;;;21.43;99.34;100861.56;5052066;28;20119;-67
2023/09/01 07:41:36;;;;;;;6.18;4.05;;;;;;;21.55;97.41;100870.53;5052173;28;20071;-68
2023/09/01 07:44:02;;;;;;;7.57;3.90;;;;;;;21.49;99.03;100890.41;5051897;28;20024;-68
2023/09/01 07:46:33;;;;;;;4.80;2.92;;;;;;;21.34;99.49;100880.81;5034292;28;20035;-66
2023/09/01 07:48:58;;;;;;;4.68;3.75;;;;;;;20.80;100.00;100805.09;5051823;28;20025;-67
2023/09/01 07:51:24;;;;;;;8.57;3.63;;;;;;;21.15;100.00;100890.03;5051813;28;20391;-67
2023/09/01 07:53:49;;;;;;;5.03;3.40;;;;;;;21.04;100.00;100897.03;5052033;28;20032;-67
2023/09/01 07:56:15;;;;;;;7.57;4.38;;;;;;;20.99;100.00;100905.03;5051813;28;20082;-71
2023/09/01 07:58:40;;;;;;;6.22;3.78;;;;;;;20.95;100.00;100900.28;5052017;28;20484;-69
2023/09/01 08:01:06;;;;;;;10.52;3.92;;;;;;;21.05;100.00;100911.41;5050741;28;20021;-73
2023/09/01 08:03:31;;;;;;;6.05;3.25;;;;;;;21.28;100.00;100908.00;5050884;28;20452;-73
2023/09/01 08:05:58;;;;;;;7.47;3.80;;;;;;;21.46;100.00;100902.56;5050399;28;20119;-70
2023/09/01 08:08:24;;;;;;;9.40;4.75;;;;;;;21.69;99.74;100899.09;5051541;28;20040;-69
2023/09/01 08:10:51;;;;;;;4.45;3.65;;;;;;;21.71;99.05;100902.38;5050165;28;20033;-67
2023/09/01 08:13:17;;;;;;;13.60;5.43;;;;;;;21.45;98.43;100881.09;5050563;28;20044;-68
2023/09/01 08:15:42;;;;;;;8.32;3.92;;;;;;;21.46;98.38;100893.59;5051799;28;20492;-67
2023/09/01 08:18:08;;;;;;;5.88;3.05;;;;;;;21.52;99.72;100908.94;5050261;28;20456;-68
2023/09/01 08:20:33;;;;;;;3.83;3.08;;;;;;;20.90;99.46;100794.56;5051676;28;20047;-68
2023/09/01 08:22:59;;;;;;;7.63;3.40;;;;;;;21.53;96.93;100900.56;5051841;28;20032;-67
2023/09/01 08:25:24;;;;;;;5.75;4.13;;;;;;;21.67;97.64;100912.00;5051644;28;20033;-67
2023/09/01 08:27:50;;;;;;;4.50;3.50;;;;;;;21.73;96.78;100913.81;5051743;28;20028;-68
2023/09/01 08:30:15;;;;;;;3.90;3.20;;;;;;;21.65;96.33;100900.59;5051715;28;20130;-69
2023/09/01 08:32:42;;;;;;;7.68;2.95;;;;;;;21.69;95.13;100909.09;5055771;28;20036;-69
2023/09/01 08:35:08;;;;;;;7.13;4.20;;;;;;;21.69;95.19;100915.34;5061420;28;20029;-68
2023/09/01 08:37:33;;;;;;;15.85;6.82;;;;;;;21.79;94.32;100921.03;5060401;28;20035;-68
2023/09/01 08:39:59;;;;;;;10.70;3.72;;;;;;;21.85;93.41;100909.25;5060339;28;20041;-70
2023/09/01 08:42:26;;;;;;;10.07;3.55;;;;;;;22.03;92.97;100931.91;5058254;28;20064;-69
2023/09/01 08:44:53;;;;;;;6.28;3.03;;;;;;;22.04;91.89;100917.31;5060604;28;20083;-69
2023/09/01 08:47:23;;;;;;;5.82;3.20;;;;;;;22.23;90.13;100927.00;5060544;28;20026;-68
2023/09/01 08:49:52;;;;;;;7.20;3.80;;;;;;;22.34;89.71;100925.34;5054849;28;20021;-68
2023/09/01 08:52:19;;;;;;;34.83;10.15;;;;;;;22.43;90.06;100932.91;5056514;28;20087;-67
2023/09/01 08:54:48;;;;;;;5.38;2.90;;;;;;;22.26;89.97;100896.66;5056263;28;20111;-68
2023/09/01 08:57:13;;;;;;;4.47;2.70;;;;;;;22.45;89.03;100929.94;5056832;28;20036;-67
2023/09/01 08:59:39;;;;;;;4.05;3.03;;;;;;;22.25;87.95;100911.28;5055593;28;20137;-68
2023/09/01 09:02:05;;;;;;;5.07;2.92;;;;;;;22.31;88.29;100929.38;5055003;28;20031;-69
2023/09/01 09:04:31;;;;;;;12.75;4.47;;;;;;;22.30;87.28;100933.16;5054563;28;20040;-70
2023/09/01 09:07:20;;;;;;;42.85;10.27;;;;;;;22.33;89.60;100940.81;5053712;28;20051;-69
2023/09/01 09:09:54;;;;;;;4.32;3.03;;;;;;;22.22;88.37;100938.91;5055256;28;20033;-68
2023/09/01 09:12:33;;;;;;;3.65;2.70;;;;;;;22.10;89.01;100948.94;5054925;28;20071;-67
2023/09/01 09:14:58;;;;;;;8.38;4.07;;;;;;;21.85;90.72;100928.22;5055199;28;20025;-68
2023/09/01 09:17:44;;;;;;;9.68;3.13;;;;;;;21.76;91.57;100942.34;5056167;28;20032;-68
2023/09/01 09:20:11;;;;;;;7.28;3.22;;;;;;;21.68;92.56;100946.19;5061593;28;20123;-67
2023/09/01 09:22:56;;;;;;;4.03;2.95;;;;;;;21.54;93.00;100934.72;5061890;28;20029;-68
2023/09/01 09:25:32;;;;;;;4.97;3.10;;;;;;;21.44;93.02;100929.06;5063627;28;20029;-65
2023/09/01 09:27:58;;;;;;;5.32;3.17;;;;;;;21.59;92.42;100945.69;5067268;28;20113;-66
2023/09/01 09:30:28;;;;;;;3.85;2.90;;;;;;;21.71;92.15;100945.75;5064152;28;20045;-68
2023/09/01 09:33:04;;;;;;;3.17;2.30;;;;;;;21.67;91.46;100931.00;5061849;28;20488;-66
2023/09/01 09:35:30;;;;;;;6.18;2.80;;;;;;;21.73;93.37;100951.78;5056625;28;20040;-68
2023/09/01 09:37:59;;;;;;;4.28;3.85;;;;;;;21.68;94.35;100945.38;5055120;28;20029;-69
2023/09/01 09:40:25;;;;;;;6.72;3.08;;;;;;;21.74;93.84;100949.88;5055278;28;20031;-68
2023/09/01 09:42:51;;;;;;;4.60;3.58;;;;;;;21.70;93.13;100938.69;5055038;28;20024;-67
2023/09/01 09:45:23;;;;;;;6.30;3.30;;;;;;;21.85;92.69;100958.03;5054736;28;20032;-68
2023/09/01 09:47:50;;;;;;;6.75;3.17;;;;;;;21.86;94.15;100956.97;5057492;28;20039;-69
2023/09/01 09:50:19;;;;;;;6.32;3.67;;;;;;;21.96;91.96;100959.13;5057415;28;20032;-68
2023/09/01 09:52:49;;;;;;;5.95;3.30;;;;;;;21.43;91.07;100854.25;5055760;28;20121;-66
2023/09/01 09:55:26;;;;;;;5.68;3.05;;;;;;;22.20;89.92;100941.03;5055737;28;20043;-67
2023/09/01 09:57:54;;;;;;;5.78;3.33;;;;;;;22.36;88.43;100943.03;5054982;28;20043;-69
2023/09/01 10:00:20;;;;;;;;;;;;;;;22.59;89.11;100963.13;5056553;28;20029;-65
2023/09/01 10:02:53;;;;;;;4.75;3.30;;;;;;;22.52;87.42;100953.19;5056689;28;20014;-68
2023/09/01 10:05:22;;;;;;;4.43;3.55;;;;;;;22.50;87.11;100949.88;5055165;28;20032;-67
2023/09/01 10:07:48;;;;;;;6.57;3.13;;;;;;;22.40;86.30;100921.69;5054564;28;20025;-68
2023/09/01 10:10:14;;;;;;;4.70;2.78;;;;;;;22.71;86.63;100955.78;5054170;28;20095;-67
2023/09/01 10:12:40;;;;;;;4.10;2.80;;;;;;;22.89;86.81;100963.81;5052858;28;20479;-66
2023/09/01 10:15:09;;;;;;;4.90;2.92;;;;;;;22.98;81.86;100951.50;5052568;28;20028;-66
2023/09/01 10:17:36;;;;;;;4.78;3.03;;;;;;;23.06;81.54;100972.84;5052570;28;20035;-65
2023/09/01 10:20:07;;;;;;;4.13;3.72;;;;;;;23.01;80.21;100951.03;5053809;28;20036;-69
2023/09/01 10:22:38;;;;;;;4.88;2.85;;;;;;;23.22;79.91;100967.75;5052479;28;20428;-71
2023/09/01 10:25:12;;;;;;;2.85;2.50;;;;;;;23.30;79.23;100970.91;5055612;28;20035;-68
2023/09/01 10:27:58;;;;;;;3.60;2.42;;;;;;;23.37;78.08;100970.75;5055214;28;20037;-69
2023/09/01 10:30:30;;;;;;;3.75;2.67;;;;;;;23.18;80.00;100945.66;5053486;28;20083;-70
2023/09/01 10:33:17;;;;;;;3.55;3.00;;;;;;;23.18;80.13;100968.22;5053553;28;20037;-68
2023/09/01 10:35:53;;;;;;;3.95;2.88;;;;;;;22.79;82.12;100925.53;5053295;28;20082;-67
2023/09/01 10:38:35;;;;;;;3.35;2.97;;;;;;;22.97;82.12;100974.31;5053285;28;20495;-71
2023/09/01 10:41:01;;;;;;;5.32;4.10;;;;;;;22.87;81.62;100960.50;5052573;28;20033;-69
2023/09/01 10:43:38;;;;;;;4.57;3.17;;;;;;;22.90;81.32;100973.63;5053271;28;20029;-69
2023/09/01 10:46:13;;;;;;;3.72;3.03;;;;;;;22.80;81.70;100976.06;5052870;28;20036;-66
2023/09/01 10:48:58;;;;;;;3.70;2.88;;;;;;;22.88;81.40;100966.78;5053154;28;20040;-69
2023/09/01 10:51:28;;;;;;;3.45;2.60;;;;;;;23.06;78.94;100975.56;5052887;28;20025;-67
2023/09/01 10:53:56;;;;;;;4.50;3.05;;;;;;;23.14;80.02;100979.81;5053155;28;20103;-66
2023/09/01 10:56:22;;;;;;;3.92;2.70;;;;;;;23.06;76.07;100964.72;5052410;28;20025;-65
2023/09/01 10:58:56;;;;;;;9.95;3.00;;;;;;;23.16;76.70;100975.81;5052660;28;20029;-68
2023/09/01 11:01:45;;;;;;;5.55;2.55;;;;;;;22.61;75.52;100869.53;5053733;28;20064;-69
2023/09/01 11:04:16;;;;;;;7.25;3.65;;;;;;;23.49;76.34;100991.41;5052931;28;20457;-67
2023/09/01 11:06:57;;;;;;;5.90;2.58;;;;;;;23.61;75.47;100996.81;5051321;28;20029;-69
2023/09/01 11:09:39;;;;;;;3.15;2.08;;;;;;;23.52;72.16;100994.69;5052549;28;20032;-68
2023/09/01 11:12:06;;;;;;;3.83;3.10;;;;;;;23.33;73.60;100996.75;5051519;28;20021;-69
2023/09/01 11:14:35;;;;;;;4.05;2.70;;;;;;;23.27;73.49;100997.75;5052881;28;20027;-69
2023/09/01 11:17:03;;;;;;;5.22;1.75;;;;;;;23.18;74.97;100983.72;5052525;28;20025;-67
2023/09/01 11:19:28;;;;;;;3.13;2.28;;;;;;;23.28;73.45;101000.22;5052284;28;20051;-68